sensor_id;sensor_type;location;lat;lon;timestamp;pressure;altitude;pressure_sealevel;temperature;humidity
51359;BME280;37448;51.588;7.248;2023-02-27T00:00:19;102163.31;;;-1.88;79.29
51359;BME280;37448;51.588;7.248;2023-02-27T00:02:20;102157.13;;;-1.91;80.38
51359;BME280;37448;51.588;7.248;2023-02-27T00:04:20;102160.66;;;-1.89;79.49
51359;BME280;37448;51.588;7.248;2023-02-27T00:06:21;102159.22;;;-1.84;79.00
51359;BME280;37448;51.588;7.248;2023-02-27T00:08:22;102157.63;;;-1.82;78.82
51359;BME280;37448;51.588;7.248;2023-02-27T00:10:23;102159.22;;;-1.84;79.29
51359;BME280;37448;51.588;7.248;2023-02-27T00:12:23;102166.09;;;-1.83;79.35
51359;BME280;37448;51.588;7.248;2023-02-27T00:14:23;102162.59;;;-1.85;79.26
51359;BME280;37448;51.588;7.248;2023-02-27T00:16:24;102166.84;;;-1.85;79.35
51359;BME280;37448;51.588;7.248;2023-02-27T00:18:24;102158.25;;;-1.86;79.18
51359;BME280;37448;51.588;7.248;2023-02-27T00:20:27;102167.53;;;-1.88;79.80
51359;BME280;37448;51.588;7.248;2023-02-27T00:22:27;102155.38;;;-1.92;80.55
51359;BME280;37448;51.588;7.248;2023-02-27T00:24:28;102160.66;;;-1.89;79.95
51359;BME280;37448;51.588;7.248;2023-02-27T00:26:29;102154.66;;;-1.90;80.16
51359;BME280;37448;51.588;7.248;2023-02-27T00:28:29;102153.63;;;-1.93;80.34
51359;BME280;37448;51.588;7.248;2023-02-27T00:30:29;102155.06;;;-1.98;81.26
51359;BME280;37448;51.588;7.248;2023-02-27T00:32:30;102152.34;;;-2.02;81.14
51359;BME280;37448;51.588;7.248;2023-02-27T00:34:30;102152.34;;;-2.02;80.42
51359;BME280;37448;51.588;7.248;2023-02-27T00:36:31;102150.56;;;-2.03;80.37
51359;BME280;37448;51.588;7.248;2023-02-27T00:38:31;102156.66;;;-2.00;80.34
51359;BME280;37448;51.588;7.248;2023-02-27T00:40:32;102153.84;;;-2.05;80.74
51359;BME280;37448;51.588;7.248;2023-02-27T00:42:35;102158.78;;;-2.08;82.00
51359;BME280;37448;51.588;7.248;2023-02-27T00:44:35;102156.22;;;-2.08;81.26
51359;BME280;37448;51.588;7.248;2023-02-27T00:46:35;102156.13;;;-2.10;81.32
51359;BME280;37448;51.588;7.248;2023-02-27T00:48:36;102153.50;;;-2.11;80.69
51359;BME280;37448;51.588;7.248;2023-02-27T00:50:36;102153.50;;;-2.11;80.70
51359;BME280;37448;51.588;7.248;2023-02-27T00:52:37;102158.69;;;-2.10;80.70
51359;BME280;37448;51.588;7.248;2023-02-27T00:54:38;102153.34;;;-2.14;81.30
51359;BME280;37448;51.588;7.248;2023-02-27T00:56:38;102155.81;;;-2.16;81.08
51359;BME280;37448;51.588;7.248;2023-02-27T00:58:40;102151.31;;;-2.20;80.88
51359;BME280;37448;51.588;7.248;2023-02-27T01:00:40;102152.97;;;-2.21;80.81
51359;BME280;37448;51.588;7.248;2023-02-27T01:02:41;102146.81;;;-2.24;81.48
51359;BME280;37448;51.588;7.248;2023-02-27T01:04:41;102153.53;;;-2.26;81.25
51359;BME280;37448;51.588;7.248;2023-02-27T01:06:42;102151.59;;;-2.31;81.66
51359;BME280;37448;51.588;7.248;2023-02-27T01:08:42;102148.84;;;-2.34;81.90
51359;BME280;37448;51.588;7.248;2023-02-27T01:10:42;102155.50;;;-2.37;81.78
51359;BME280;37448;51.588;7.248;2023-02-27T01:12:43;102152.84;;;-2.39;82.23
51359;BME280;37448;51.588;7.248;2023-02-27T01:14:43;102154.44;;;-2.41;82.47
51359;BME280;37448;51.588;7.248;2023-02-27T01:16:44;102152.69;;;-2.42;81.94
51359;BME280;37448;51.588;7.248;2023-02-27T01:18:44;102148.19;;;-2.46;82.28
51359;BME280;37448;51.588;7.248;2023-02-27T01:20:45;102156.72;;;-2.46;82.17
51359;BME280;37448;51.588;7.248;2023-02-27T01:22:46;102147.22;;;-2.48;82.48
51359;BME280;37448;51.588;7.248;2023-02-27T01:24:47;102150.47;;;-2.51;82.43
51359;BME280;37448;51.588;7.248;2023-02-27T01:26:47;102149.69;;;-2.50;82.55
51359;BME280;37448;51.588;7.248;2023-02-27T01:28:48;102148.63;;;-2.53;82.73
51359;BME280;37448;51.588;7.248;2023-02-27T01:30:48;102151.16;;;-2.53;83.18
51359;BME280;37448;51.588;7.248;2023-02-27T01:32:48;102155.16;;;-2.58;83.36
51359;BME280;37448;51.588;7.248;2023-02-27T01:34:49;102150.84;;;-2.60;83.16
51359;BME280;37448;51.588;7.248;2023-02-27T01:36:49;102155.16;;;-2.58;83.35
51359;BME280;37448;51.588;7.248;2023-02-27T01:38:49;102150.03;;;-2.58;82.67
51359;BME280;37448;51.588;7.248;2023-02-27T01:40:50;102153.56;;;-2.56;82.48
51359;BME280;37448;51.588;7.248;2023-02-27T01:42:50;102155.25;;;-2.57;83.01
51359;BME280;37448;51.588;7.248;2023-02-27T01:47:10;102150.94;;;-2.58;83.01
51359;BME280;37448;51.588;7.248;2023-02-27T01:49:20;102154.97;;;-2.62;83.31
51359;BME280;37448;51.588;7.248;2023-02-27T01:51:21;102153.22;;;-2.63;83.74
51359;BME280;37448;51.588;7.248;2023-02-27T01:53:21;102153.84;;;-2.67;83.86
51359;BME280;37448;51.588;7.248;2023-02-27T01:55:27;102149.34;;;-2.71;83.71
51359;BME280;37448;51.588;7.248;2023-02-27T01:57:29;102147.41;;;-2.75;84.14
51359;BME280;37448;51.588;7.248;2023-02-27T01:59:29;102148.28;;;-2.75;83.90
51359;BME280;37448;51.588;7.248;2023-02-27T02:01:31;102143.69;;;-2.80;84.79
51359;BME280;37448;51.588;7.248;2023-02-27T02:03:40;102153.22;;;-2.78;83.31
51359;BME280;37448;51.588;7.248;2023-02-27T02:05:43;102146.25;;;-2.80;83.80
51359;BME280;37448;51.588;7.248;2023-02-27T02:07:46;102150.31;;;-2.84;84.17
51359;BME280;37448;51.588;7.248;2023-02-27T02:09:50;102149.34;;;-2.86;83.89
51359;BME280;37448;51.588;7.248;2023-02-27T02:11:52;102151.91;;;-2.86;84.04
51359;BME280;37448;51.588;7.248;2023-02-27T02:13:56;102145.72;;;-2.90;83.96
51359;BME280;37448;51.588;7.248;2023-02-27T02:16:06;102149.88;;;-2.92;84.40
51359;BME280;37448;51.588;7.248;2023-02-27T02:18:41;102146.34;;;-2.94;84.24
51359;BME280;37448;51.588;7.248;2023-02-27T02:34:46;102154.22;;;-3.34;86.78
51359;BME280;37448;51.588;7.248;2023-02-27T02:39:41;102156.75;;;-3.49;86.45
51359;BME280;37448;51.588;7.248;2023-02-27T02:44:06;102164.72;;;-3.58;86.74
51359;BME280;37448;51.588;7.248;2023-02-27T02:48:41;102173.59;;;-3.66;86.52
51359;BME280;37448;51.588;7.248;2023-02-27T02:50:50;102172.69;;;-3.67;86.90
51359;BME280;37448;51.588;7.248;2023-02-27T02:55:23;102182.13;;;-3.66;86.53
51359;BME280;37448;51.588;7.248;2023-02-27T02:58:11;102180.66;;;-3.62;87.17
51359;BME280;37448;51.588;7.248;2023-02-27T03:00:17;102179.75;;;-3.63;86.52
51359;BME280;37448;51.588;7.248;2023-02-27T03:02:24;102176.78;;;-3.27;86.41
51359;BME280;37448;51.588;7.248;2023-02-27T03:04:32;102178.94;;;-3.20;85.13
51359;BME280;37448;51.588;7.248;2023-02-27T03:06:39;102180.19;;;-3.13;84.39
51359;BME280;37448;51.588;7.248;2023-02-27T03:08:45;102182.63;;;-3.14;84.86
51359;BME280;37448;51.588;7.248;2023-02-27T03:10:54;102179.00;;;-3.18;84.58
51359;BME280;37448;51.588;7.248;2023-02-27T03:13:02;102181.38;;;-3.21;85.41
51359;BME280;37448;51.588;7.248;2023-02-27T03:15:12;102179.81;;;-3.19;85.72
51359;BME280;37448;51.588;7.248;2023-02-27T03:17:25;102176.84;;;-3.12;85.90
51359;BME280;37448;51.588;7.248;2023-02-27T03:19:42;102180.44;;;-3.08;86.78
51359;BME280;37448;51.588;7.248;2023-02-27T03:21:49;102177.88;;;-3.08;87.38
51359;BME280;37448;51.588;7.248;2023-02-27T03:23:55;102177.72;;;-3.11;87.97
51359;BME280;37448;51.588;7.248;2023-02-27T03:25:59;102178.22;;;-3.17;88.35
51359;BME280;37448;51.588;7.248;2023-02-27T03:28:07;102182.28;;;-3.21;88.62
51359;BME280;37448;51.588;7.248;2023-02-27T03:34:39;102169.13;;;-3.27;86.74
51359;BME280;37448;51.588;7.248;2023-02-27T03:38:54;102173.44;;;-3.26;85.76
51359;BME280;37448;51.588;7.248;2023-02-27T03:41:14;102173.44;;;-3.26;86.88
51359;BME280;37448;51.588;7.248;2023-02-27T03:44:13;102175.03;;;-3.28;86.21
51359;BME280;37448;51.588;7.248;2023-02-27T03:46:10;102174.84;;;-3.31;86.78
51359;BME280;37448;51.588;7.248;2023-02-27T03:48:13;102171.41;;;-3.32;86.49
51359;BME280;37448;51.588;7.248;2023-02-27T03:50:14;102164.44;;;-3.34;87.03
51359;BME280;37448;51.588;7.248;2023-02-27T03:52:17;102163.56;;;-3.35;87.98
51359;BME280;37448;51.588;7.248;2023-02-27T03:54:26;102169.38;;;-3.37;87.28
51359;BME280;37448;51.588;7.248;2023-02-27T03:56:30;102168.41;;;-3.39;87.87
51359;BME280;37448;51.588;7.248;2023-02-27T03:58:33;102177.72;;;-3.40;87.48
51359;BME280;37448;51.588;7.248;2023-02-27T04:00:35;102175.94;;;-3.41;87.39
51359;BME280;37448;51.588;7.248;2023-02-27T04:02:35;102176.75;;;-3.42;87.95
51359;BME280;37448;51.588;7.248;2023-02-27T04:04:35;102170.78;;;-3.42;87.14
51359;BME280;37448;51.588;7.248;2023-02-27T04:06:51;102178.44;;;-3.42;86.44
51359;BME280;37448;51.588;7.248;2023-02-27T04:20:17;102176.50;;;-3.47;86.36
51359;BME280;37448;51.588;7.248;2023-02-27T04:22:33;102184.16;;;-3.47;86.43
51359;BME280;37448;51.588;7.248;2023-02-27T04:25:04;102185.72;;;-3.49;86.49
51359;BME280;37448;51.588;7.248;2023-02-27T04:33:02;102197.13;;;-3.57;86.35
51359;BME280;37448;51.588;7.248;2023-02-27T04:35:09;102198.72;;;-3.59;86.46
51359;BME280;37448;51.588;7.248;2023-02-27T04:39:38;102199.50;;;-3.60;86.51
51359;BME280;37448;51.588;7.248;2023-02-27T04:41:47;102205.41;;;-3.61;86.64
51359;BME280;37448;51.588;7.248;2023-02-27T04:43:51;102206.38;;;-3.59;86.51
51359;BME280;37448;51.588;7.248;2023-02-27T04:45:54;102205.41;;;-3.61;86.38
51359;BME280;37448;51.588;7.248;2023-02-27T04:48:17;102201.88;;;-3.63;86.96
51359;BME280;37448;51.588;7.248;2023-02-27T04:50:34;102204.44;;;-3.63;86.96
51359;BME280;37448;51.588;7.248;2023-02-27T04:52:43;102210.31;;;-3.64;86.87
51359;BME280;37448;51.588;7.248;2023-02-27T04:54:50;102214.66;;;-3.63;86.85
51359;BME280;37448;51.588;7.248;2023-02-27T04:56:55;102222.97;;;-3.66;86.58
51359;BME280;37448;51.588;7.248;2023-02-27T04:59:00;102212.69;;;-3.67;86.58
51359;BME280;37448;51.588;7.248;2023-02-27T05:01:11;102223.69;;;-3.68;86.80
51359;BME280;37448;51.588;7.248;2023-02-27T05:03:22;102218.41;;;-3.71;86.91
51359;BME280;37448;51.588;7.248;2023-02-27T05:05:26;102215.75;;;-3.73;86.57
51359;BME280;37448;51.588;7.248;2023-02-27T05:07:33;102219.88;;;-3.75;86.55
51359;BME280;37448;51.588;7.248;2023-02-27T05:09:47;102214.47;;;-3.80;86.68
51359;BME280;37448;51.588;7.248;2023-02-27T05:11:55;102220.38;;;-3.81;86.89
51359;BME280;37448;51.588;7.248;2023-02-27T05:14:12;102224.50;;;-3.83;86.75
51359;BME280;37448;51.588;7.248;2023-02-27T05:16:20;102228.72;;;-3.83;86.75
51359;BME280;37448;51.588;7.248;2023-02-27T05:18:22;102232.75;;;-3.87;87.20
51359;BME280;37448;51.588;7.248;2023-02-27T05:20:26;102234.50;;;-3.86;86.71
51359;BME280;37448;51.588;7.248;2023-02-27T05:22:48;102227.84;;;-3.84;87.17
51359;BME280;37448;51.588;7.248;2023-02-27T05:25:03;102230.38;;;-3.84;86.96
51359;BME280;37448;51.588;7.248;2023-02-27T05:29:16;102236.69;;;-3.92;87.03
51359;BME280;37448;51.588;7.248;2023-02-27T05:33:44;102233.94;;;-3.95;87.06
51359;BME280;37448;51.588;7.248;2023-02-27T05:38:13;102238.63;;;-4.01;86.83
51359;BME280;37448;51.588;7.248;2023-02-27T05:40:21;102237.38;;;-4.08;86.81
51359;BME280;37448;51.588;7.248;2023-02-27T05:42:30;102236.28;;;-4.12;86.60
51359;BME280;37448;51.588;7.248;2023-02-27T05:44:36;102237.09;;;-4.13;86.56
51359;BME280;37448;51.588;7.248;2023-02-27T05:46:43;102237.66;;;-4.17;86.26
51359;BME280;37448;51.588;7.248;2023-02-27T05:48:52;102242.34;;;-4.23;86.58
51359;BME280;37448;51.588;7.248;2023-02-27T05:50:54;102250.72;;;-4.26;86.69
51359;BME280;37448;51.588;7.248;2023-02-27T05:53:00;102248.84;;;-4.28;86.74
51359;BME280;37448;51.588;7.248;2023-02-27T05:55:21;102256.28;;;-4.32;86.92
51359;BME280;37448;51.588;7.248;2023-02-27T05:57:28;102257.19;;;-4.31;86.98
51359;BME280;37448;51.588;7.248;2023-02-27T05:59:34;102263.75;;;-4.35;86.93
51359;BME280;37448;51.588;7.248;2023-02-27T06:01:38;102267.09;;;-4.36;87.10
51359;BME280;37448;51.588;7.248;2023-02-27T06:03:39;102263.56;;;-4.38;86.60
51359;BME280;37448;51.588;7.248;2023-02-27T06:05:41;102276.31;;;-4.38;86.67
51359;BME280;37448;51.588;7.248;2023-02-27T06:07:42;102277.28;;;-4.36;86.80
51359;BME280;37448;51.588;7.248;2023-02-27T06:09:43;102278.84;;;-4.38;87.31
51359;BME280;37448;51.588;7.248;2023-02-27T06:11:44;102273.06;;;-4.35;87.57
51359;BME280;37448;51.588;7.248;2023-02-27T06:13:44;102280.81;;;-4.34;87.00
51359;BME280;37448;51.588;7.248;2023-02-27T06:15:45;102279.91;;;-4.34;87.38
51359;BME280;37448;51.588;7.248;2023-02-27T06:17:45;102283.69;;;-4.29;87.46
51359;BME280;37448;51.588;7.248;2023-02-27T06:19:46;102290.94;;;-4.22;88.16
51359;BME280;37448;51.588;7.248;2023-02-27T06:21:46;102294.41;;;-4.21;87.91
51359;BME280;37448;51.588;7.248;2023-02-27T06:23:46;102291.72;;;-4.23;87.74
51359;BME280;37448;51.588;7.248;2023-02-27T06:25:48;102292.84;;;-4.19;87.80
51359;BME280;37448;51.588;7.248;2023-02-27T06:27:48;102300.88;;;-4.13;88.16
51359;BME280;37448;51.588;7.248;2023-02-27T06:29:48;102303.31;;;-4.14;87.51
51359;BME280;37448;51.588;7.248;2023-02-27T06:31:49;102307.75;;;-4.12;87.70
51359;BME280;37448;51.588;7.248;2023-02-27T06:33:49;102301.75;;;-4.12;87.68
51359;BME280;37448;51.588;7.248;2023-02-27T06:35:50;102303.63;;;-4.10;87.55
51359;BME280;37448;51.588;7.248;2023-02-27T06:37:51;102307.94;;;-4.09;87.30
51359;BME280;37448;51.588;7.248;2023-02-27T06:39:52;102305.59;;;-4.06;87.68
51359;BME280;37448;51.588;7.248;2023-02-27T06:41:52;102299.81;;;-4.03;87.65
51359;BME280;37448;51.588;7.248;2023-02-27T06:43:52;102303.34;;;-4.01;87.69
51359;BME280;37448;51.588;7.248;2023-02-27T06:45:55;102304.31;;;-3.99;87.35
51359;BME280;37448;51.588;7.248;2023-02-27T06:47:55;102307.00;;;-3.97;87.87
51359;BME280;37448;51.588;7.248;2023-02-27T06:49:56;102301.19;;;-3.95;87.76
51359;BME280;37448;51.588;7.248;2023-02-27T06:51:56;102308.97;;;-3.93;87.68
51359;BME280;37448;51.588;7.248;2023-02-27T06:53:57;102302.28;;;-3.91;87.78
51359;BME280;37448;51.588;7.248;2023-02-27T06:55:57;102310.91;;;-3.89;87.65
51359;BME280;37448;51.588;7.248;2023-02-27T06:57:58;102306.00;;;-3.86;87.61
51359;BME280;37448;51.588;7.248;2023-02-27T06:59:58;102305.31;;;-3.83;87.62
51359;BME280;37448;51.588;7.248;2023-02-27T07:01:58;102307.97;;;-3.82;87.21
51359;BME280;37448;51.588;7.248;2023-02-27T07:03:59;102308.94;;;-3.80;87.68
51359;BME280;37448;51.588;7.248;2023-02-27T07:06:00;102320.13;;;-3.78;87.96
51359;BME280;37448;51.588;7.248;2023-02-27T07:08:01;102318.56;;;-3.76;87.84
51359;BME280;37448;51.588;7.248;2023-02-27T07:10:05;102323.78;;;-3.74;88.13
51359;BME280;37448;51.588;7.248;2023-02-27T07:12:06;102325.66;;;-3.71;88.02
51359;BME280;37448;51.588;7.248;2023-02-27T07:14:07;102325.84;;;-3.68;87.94
51359;BME280;37448;51.588;7.248;2023-02-27T07:16:07;102329.38;;;-3.66;87.69
51359;BME280;37448;51.588;7.248;2023-02-27T07:18:07;102338.22;;;-3.61;87.27
51359;BME280;37448;51.588;7.248;2023-02-27T07:20:09;102330.84;;;-3.56;87.50
51359;BME280;37448;51.588;7.248;2023-02-27T07:22:10;102337.03;;;-3.53;87.44
51359;BME280;37448;51.588;7.248;2023-02-27T07:24:10;102341.47;;;-3.50;87.63
51359;BME280;37448;51.588;7.248;2023-02-27T07:26:10;102342.13;;;-3.39;88.03
51359;BME280;37448;51.588;7.248;2023-02-27T07:28:11;102348.91;;;-3.13;87.30
51359;BME280;37448;51.588;7.248;2023-02-27T07:30:11;102344.28;;;-2.62;87.79
51359;BME280;37448;51.588;7.248;2023-02-27T07:32:12;102341.25;;;-1.96;86.81
51359;BME280;37448;51.588;7.248;2023-02-27T07:34:12;102343.03;;;-1.33;85.80
51359;BME280;37448;51.588;7.248;2023-02-27T07:36:14;102347.53;;;-0.64;86.60
51359;BME280;37448;51.588;7.248;2023-02-27T07:38:15;102340.72;;;-0.12;85.31
51359;BME280;37448;51.588;7.248;2023-02-27T07:40:15;102352.97;;;0.28;76.13
51359;BME280;37448;51.588;7.248;2023-02-27T07:42:16;102348.00;;;0.69;85.69
51359;BME280;37448;51.588;7.248;2023-02-27T07:44:16;102340.41;;;1.10;84.48
51359;BME280;37448;51.588;7.248;2023-02-27T07:46:16;102342.78;;;1.45;77.92
51359;BME280;37448;51.588;7.248;2023-02-27T07:48:17;102346.25;;;1.86;74.29
51359;BME280;37448;51.588;7.248;2023-02-27T07:50:18;102338.59;;;2.30;72.11
51359;BME280;37448;51.588;7.248;2023-02-27T07:52:18;102345.41;;;2.73;76.92
51359;BME280;37448;51.588;7.248;2023-02-27T07:54:19;102349.47;;;2.67;65.76
51359;BME280;37448;51.588;7.248;2023-02-27T07:56:19;102343.91;;;3.26;70.51
51359;BME280;37448;51.588;7.248;2023-02-27T07:58:20;102349.06;;;3.50;72.25
51359;BME280;37448;51.588;7.248;2023-02-27T08:00:20;102347.31;;;3.49;68.54
51359;BME280;37448;51.588;7.248;2023-02-27T08:02:21;102349.03;;;4.00;67.27
51359;BME280;37448;51.588;7.248;2023-02-27T08:04:22;102349.44;;;4.40;64.48
51359;BME280;37448;51.588;7.248;2023-02-27T08:06:22;102356.88;;;4.58;66.33
51359;BME280;37448;51.588;7.248;2023-02-27T08:08:23;102351.88;;;4.94;67.38
51359;BME280;37448;51.588;7.248;2023-02-27T08:10:23;102353.56;;;4.92;59.30
51359;BME280;37448;51.588;7.248;2023-02-27T08:12:24;102355.53;;;5.31;73.33
51359;BME280;37448;51.588;7.248;2023-02-27T08:14:24;102352.47;;;5.44;58.95
51359;BME280;37448;51.588;7.248;2023-02-27T08:16:25;102349.41;;;5.59;56.24
51359;BME280;37448;51.588;7.248;2023-02-27T08:18:25;102347.44;;;4.89;54.38
51359;BME280;37448;51.588;7.248;2023-02-27T08:20:25;102357.59;;;5.12;55.05
51359;BME280;37448;51.588;7.248;2023-02-27T08:22:26;102347.97;;;6.05;60.88
51359;BME280;37448;51.588;7.248;2023-02-27T08:24:27;102358.19;;;4.73;54.95
51359;BME280;37448;51.588;7.248;2023-02-27T08:26:27;102357.78;;;4.88;60.37
51359;BME280;37448;51.588;7.248;2023-02-27T08:28:28;102364.94;;;5.59;64.13
51359;BME280;37448;51.588;7.248;2023-02-27T08:30:28;102354.66;;;5.96;57.02
51359;BME280;37448;51.588;7.248;2023-02-27T08:32:28;102364.63;;;5.16;60.09
51359;BME280;37448;51.588;7.248;2023-02-27T08:34:29;102357.91;;;5.89;62.62
51359;BME280;37448;51.588;7.248;2023-02-27T08:36:29;102364.47;;;5.74;60.88
51359;BME280;37448;51.588;7.248;2023-02-27T08:38:30;102363.84;;;5.19;54.19
51359;BME280;37448;51.588;7.248;2023-02-27T08:40:30;102368.94;;;6.14;65.35
51359;BME280;37448;51.588;7.248;2023-02-27T08:42:30;102354.63;;;6.30;58.16
51359;BME280;37448;51.588;7.248;2023-02-27T08:44:31;102360.41;;;5.51;54.13
51359;BME280;37448;51.588;7.248;2023-02-27T08:46:31;102362.81;;;6.47;55.71
51359;BME280;37448;51.588;7.248;2023-02-27T08:48:31;102365.84;;;6.66;51.06
51359;BME280;37448;51.588;7.248;2023-02-27T08:50:32;102367.47;;;7.02;52.64
51359;BME280;37448;51.588;7.248;2023-02-27T08:52:32;102367.22;;;7.80;67.37
51359;BME280;37448;51.588;7.248;2023-02-27T08:54:33;102362.44;;;7.54;50.99
51359;BME280;37448;51.588;7.248;2023-02-27T08:56:33;102360.13;;;7.71;53.55
51359;BME280;37448;51.588;7.248;2023-02-27T08:58:34;102364.06;;;7.98;54.20
51359;BME280;37448;51.588;7.248;2023-02-27T09:00:35;102368.03;;;7.30;50.68
51359;BME280;37448;51.588;7.248;2023-02-27T09:02:35;102362.38;;;7.53;54.48
51359;BME280;37448;51.588;7.248;2023-02-27T09:04:35;102355.94;;;7.32;49.99
51359;BME280;37448;51.588;7.248;2023-02-27T09:06:36;102354.59;;;6.67;49.22
51359;BME280;37448;51.588;7.248;2023-02-27T09:08:37;102355.44;;;7.52;50.74
51359;BME280;37448;51.588;7.248;2023-02-27T09:10:37;102363.06;;;7.92;53.53
51359;BME280;37448;51.588;7.248;2023-02-27T09:12:38;102364.66;;;8.36;54.28
51359;BME280;37448;51.588;7.248;2023-02-27T09:14:38;102362.38;;;8.56;49.21
51359;BME280;37448;51.588;7.248;2023-02-27T09:16:39;102357.13;;;8.54;47.10
51359;BME280;37448;51.588;7.248;2023-02-27T09:18:39;102360.50;;;9.12;55.01
51359;BME280;37448;51.588;7.248;2023-02-27T09:20:39;102357.88;;;8.47;48.12
51359;BME280;37448;51.588;7.248;2023-02-27T09:22:40;102364.28;;;8.11;49.45
51359;BME280;37448;51.588;7.248;2023-02-27T09:24:41;102369.22;;;7.95;47.97
51359;BME280;37448;51.588;7.248;2023-02-27T09:26:42;102357.97;;;7.02;46.36
51359;BME280;37448;51.588;7.248;2023-02-27T09:28:42;102360.47;;;7.42;50.15
51359;BME280;37448;51.588;7.248;2023-02-27T09:30:43;102358.97;;;7.55;46.40
51359;BME280;37448;51.588;7.248;2023-02-27T09:32:43;102357.13;;;7.05;49.37
51359;BME280;37448;51.588;7.248;2023-02-27T09:34:44;102361.88;;;6.83;47.98
51359;BME280;37448;51.588;7.248;2023-02-27T09:36:44;102355.22;;;7.41;53.14
51359;BME280;37448;51.588;7.248;2023-02-27T09:38:45;102353.09;;;7.64;47.32
51359;BME280;37448;51.588;7.248;2023-02-27T09:40:46;102355.94;;;8.32;52.95
51359;BME280;37448;51.588;7.248;2023-02-27T09:42:49;102364.84;;;8.48;48.69
51359;BME280;37448;51.588;7.248;2023-02-27T09:44:53;102353.16;;;8.21;46.92
51359;BME280;37448;51.588;7.248;2023-02-27T09:46:55;102350.88;;;8.43;54.01
51359;BME280;37448;51.588;7.248;2023-02-27T09:48:58;102355.84;;;8.27;49.20
51359;BME280;37448;51.588;7.248;2023-02-27T09:50:59;102344.41;;;8.76;45.85
51359;BME280;37448;51.588;7.248;2023-02-27T09:53:00;102355.31;;;8.48;48.04
51359;BME280;37448;51.588;7.248;2023-02-27T09:55:03;102352.66;;;8.45;46.58
51359;BME280;37448;51.588;7.248;2023-02-27T09:57:05;102348.44;;;8.51;49.68
51359;BME280;37448;51.588;7.248;2023-02-27T09:59:34;102348.53;;;8.58;45.78
51359;BME280;37448;51.588;7.248;2023-02-27T10:01:42;102340.38;;;9.00;47.25
51359;BME280;37448;51.588;7.248;2023-02-27T10:04:05;102339.63;;;9.07;46.04
51359;BME280;37448;51.588;7.248;2023-02-27T10:06:24;102341.41;;;9.11;44.83
51359;BME280;37448;51.588;7.248;2023-02-27T10:08:32;102346.72;;;8.53;44.14
51359;BME280;37448;51.588;7.248;2023-02-27T10:10:42;102343.47;;;9.43;44.49
51359;BME280;37448;51.588;7.248;2023-02-27T10:12:58;102332.84;;;9.25;49.59
51359;BME280;37448;51.588;7.248;2023-02-27T10:15:04;102338.75;;;9.99;50.67
51359;BME280;37448;51.588;7.248;2023-02-27T10:17:28;102341.13;;;9.70;45.64
51359;BME280;37448;51.588;7.248;2023-02-27T10:19:32;102341.88;;;9.55;47.12
51359;BME280;37448;51.588;7.248;2023-02-27T10:21:37;102336.16;;;9.08;43.96
51359;BME280;37448;51.588;7.248;2023-02-27T10:23:51;102339.50;;;9.84;46.00
51359;BME280;37448;51.588;7.248;2023-02-27T10:25:54;102336.00;;;9.77;44.54
51359;BME280;37448;51.588;7.248;2023-02-27T10:27:59;102344.09;;;10.12;44.65
51359;BME280;37448;51.588;7.248;2023-02-27T10:30:22;102345.03;;;10.23;42.42
51359;BME280;37448;51.588;7.248;2023-02-27T10:32:30;102349.28;;;10.10;45.63
51359;BME280;37448;51.588;7.248;2023-02-27T10:34:33;102347.81;;;9.41;42.81
51359;BME280;37448;51.588;7.248;2023-02-27T10:36:33;102345.22;;;9.44;45.13
51359;BME280;37448;51.588;7.248;2023-02-27T10:38:38;102346.69;;;9.21;43.20
51359;BME280;37448;51.588;7.248;2023-02-27T10:40:41;102339.91;;;9.35;44.12
51359;BME280;37448;51.588;7.248;2023-02-27T10:42:42;102344.16;;;9.27;43.76
51359;BME280;37448;51.588;7.248;2023-02-27T10:44:42;102347.00;;;8.73;45.45
51359;BME280;37448;51.588;7.248;2023-02-27T10:46:43;102350.81;;;7.84;45.10
51359;BME280;37448;51.588;7.248;2023-02-27T10:48:44;102349.88;;;7.33;46.64
51359;BME280;37448;51.588;7.248;2023-02-27T10:50:47;102346.50;;;6.93;48.87
51359;BME280;37448;51.588;7.248;2023-02-27T10:52:54;102345.06;;;6.27;48.55
51359;BME280;37448;51.588;7.248;2023-02-27T10:54:54;102349.88;;;6.12;50.73
51359;BME280;37448;51.588;7.248;2023-02-27T10:56:57;102355.03;;;5.78;50.39
51359;BME280;37448;51.588;7.248;2023-02-27T10:59:04;102354.75;;;5.34;52.15
51359;BME280;37448;51.588;7.248;2023-02-27T11:01:08;102352.16;;;5.03;51.92
51359;BME280;37448;51.588;7.248;2023-02-27T11:03:26;102338.66;;;4.83;53.38
51359;BME280;37448;51.588;7.248;2023-02-27T11:05:33;102343.19;;;4.92;54.15
51359;BME280;37448;51.588;7.248;2023-02-27T11:07:38;102348.13;;;4.82;54.04
51359;BME280;37448;51.588;7.248;2023-02-27T11:09:38;102354.97;;;4.80;54.99
51359;BME280;37448;51.588;7.248;2023-02-27T11:11:39;102348.28;;;4.59;54.26
51359;BME280;37448;51.588;7.248;2023-02-27T11:13:41;102343.47;;;4.43;54.64
51359;BME280;37448;51.588;7.248;2023-02-27T11:15:42;102346.78;;;4.39;56.22
51359;BME280;37448;51.588;7.248;2023-02-27T11:17:42;102337.94;;;4.32;55.60
51359;BME280;37448;51.588;7.248;2023-02-27T11:19:43;102333.13;;;4.43;57.12
51359;BME280;37448;51.588;7.248;2023-02-27T11:21:58;102339.19;;;4.16;56.24
51359;BME280;37448;51.588;7.248;2023-02-27T11:24:16;102336.75;;;4.21;56.42
51359;BME280;37448;51.588;7.248;2023-02-27T11:26:30;102337.28;;;3.84;56.82
51359;BME280;37448;51.588;7.248;2023-02-27T11:28:32;102329.69;;;3.89;57.05
51359;BME280;37448;51.588;7.248;2023-02-27T11:30:32;102326.66;;;3.75;57.35
51359;BME280;37448;51.588;7.248;2023-02-27T11:32:41;102314.63;;;3.76;57.86
51359;BME280;37448;51.588;7.248;2023-02-27T11:34:47;102316.97;;;3.69;58.74
51359;BME280;37448;51.588;7.248;2023-02-27T11:36:51;102314.34;;;3.68;58.27
51359;BME280;37448;51.588;7.248;2023-02-27T11:38:54;102308.84;;;3.58;57.46
51359;BME280;37448;51.588;7.248;2023-02-27T11:41:01;102310.84;;;3.41;57.21
51359;BME280;37448;51.588;7.248;2023-02-27T11:43:03;102302.69;;;3.29;57.04
51359;BME280;37448;51.588;7.248;2023-02-27T11:47:34;102297.91;;;3.15;58.96
51359;BME280;37448;51.588;7.248;2023-02-27T11:49:44;102310.88;;;3.17;57.82
51359;BME280;37448;51.588;7.248;2023-02-27T11:54:12;102312.72;;;2.97;59.70